Time,TemperatureF,DewpointF,PressureIn,WindDirection,WindDirectionDegrees,WindSpeedMPH,WindSpeedGustMPH,Humidity,HourlyPrecipIn,Conditions,Clouds,dailyrainin,SoftwareType,DateUTC
2013-03-13 00:00:00,36.2,28.0,30.00,West,270,0.2,1.8,72,0.00,,,0.05,WUHU216HW,2013-03-13 04:00:00,
2013-03-13 00:05:00,36.0,27.8,30.00,WSW,248,0.4,0.9,72,0.00,,,0.00,WUHU216HW,2013-03-13 04:05:00,
2013-03-13 00:10:00,35.6,27.5,30.00,SW,225,0.4,0.4,72,0.00,,,0.00,WUHU216HW,2013-03-13 04:10:00,
2013-03-13 00:15:00,35.3,27.1,30.00,SW,225,0.0,1.1,72,0.00,,,0.00,WUHU216HW,2013-03-13 04:15:00,
2013-03-13 00:20:00,34.9,26.7,30.00,SW,225,0.0,1.1,72,0.00,,,0.00,WUHU216HW,2013-03-13 04:20:00,
2013-03-13 00:25:00,34.7,26.9,30.00,SW,225,0.0,0.9,73,0.00,,,0.00,WUHU216HW,2013-03-13 04:25:00,
2013-03-13 00:30:00,34.6,26.7,30.00,WSW,248,0.2,0.9,73,0.00,,,0.00,WUHU216HW,2013-03-13 04:30:00,
2013-03-13 00:35:00,34.4,26.6,30.00,West,270,0.0,0.2,73,0.00,,,0.00,WUHU216HW,2013-03-13 04:35:00,
2013-03-13 00:40:00,34.2,26.4,30.00,West,270,0.4,0.4,73,0.00,,,0.00,WUHU216HW,2013-03-13 04:40:00,
2013-03-13 00:45:00,34.2,26.4,30.00,West,270,0.2,1.1,73,0.00,,,0.00,WUHU216HW,2013-03-13 04:45:00,
2013-03-13 00:50:00,34.2,26.4,30.00,West,270,0.2,1.1,73,0.00,,,0.00,WUHU216HW,2013-03-13 04:50:00,
2013-03-13 00:55:00,34.2,26.4,30.00,WNW,293,0.4,0.4,73,0.00,,,0.00,WUHU216HW,2013-03-13 04:55:00,
2013-03-13 01:00:00,34.4,26.6,29.99,WSW,248,0.0,0.4,73,0.00,,,0.00,WUHU216HW,2013-03-13 05:00:00,
2013-03-13 01:05:00,34.6,26.7,29.99,SW,225,0.0,0.2,73,0.00,,,0.00,WUHU216HW,2013-03-13 05:05:00,
2013-03-13 01:10:00,34.4,26.6,29.99,SW,225,0.0,0.2,73,0.00,,,0.00,WUHU216HW,2013-03-13 05:10:00,
2013-03-13 01:15:00,34.2,26.4,29.99,SW,225,0.0,0.0,73,0.00,,,0.00,WUHU216HW,2013-03-13 05:15:00,
2013-03-13 01:20:00,34.2,26.4,29.99,SW,225,0.0,0.0,73,0.00,,,0.00,WUHU216HW,2013-03-13 05:20:00,
2013-03-13 01:25:00,34.2,26.4,29.99,SW,225,0.0,0.0,73,0.00,,,0.00,WUHU216HW,2013-03-13 05:25:00,
2013-03-13 01:30:00,34.2,26.4,29.99,SW,225,0.0,0.0,73,0.00,,,0.00,WUHU216HW,2013-03-13 05:30:00,
2013-03-13 01:35:00,34.2,26.4,29.99,East,90,0.2,0.4,73,0.00,,,0.00,WUHU216HW,2013-03-13 05:35:00,
2013-03-13 01:40:00,34.4,26.6,29.98,East,90,0.0,0.4,73,0.00,,,0.00,WUHU216HW,2013-03-13 05:40:00,
2013-03-13 01:45:00,34.6,26.7,29.98,East,90,0.0,0.0,73,0.00,,,0.00,WUHU216HW,2013-03-13 05:45:00,
2013-03-13 01:50:00,34.6,26.7,29.98,ESE,113,0.0,0.4,73,0.00,,,0.00,WUHU216HW,2013-03-13 05:50:00,
2013-03-13 01:55:00,34.6,26.7,29.98,ESE,113,0.0,0.0,73,0.00,,,0.00,WUHU216HW,2013-03-13 05:55:00,
2013-03-13 02:00:00,34.6,26.7,29.98,SE,135,0.2,0.2,73,0.00,,,0.00,WUHU216HW,2013-03-13 06:00:00,
2013-03-13 02:05:00,34.6,26.7,29.98,SSW,203,0.4,0.4,73,0.00,,,0.00,WUHU216HW,2013-03-13 06:05:00,
2013-03-13 02:10:00,34.4,26.6,29.98,West,270,0.2,0.4,73,0.00,,,0.00,WUHU216HW,2013-03-13 06:10:00,
2013-03-13 02:15:00,34.2,26.4,29.98,West,270,0.0,0.4,73,0.00,,,0.00,WUHU216HW,2013-03-13 06:15:00,
2013-03-13 02:20:00,34.0,26.2,29.98,West,270,0.4,0.4,73,0.00,,,0.00,WUHU216HW,2013-03-13 06:20:00,
2013-03-13 02:25:00,34.0,26.5,29.98,WSW,248,0.2,0.4,74,0.00,,,0.00,WUHU216HW,2013-03-13 06:25:00,
2013-03-13 02:30:00,33.8,26.3,29.98,West,270,0.9,0.9,74,0.00,,,0.00,WUHU216HW,2013-03-13 06:30:00,
2013-03-13 02:35:00,33.8,26.3,29.97,West,270,0.0,0.9,74,0.00,,,0.00,WUHU216HW,2013-03-13 06:35:00,
2013-03-13 02:40:00,33.8,26.3,29.97,ESE,113,0.4,0.9,74,0.00,,,0.00,WUHU216HW,2013-03-13 06:40:00,
2013-03-13 02:45:00,33.7,26.2,29.97,NW,315,1.6,1.8,74,0.00,,,0.00,WUHU216HW,2013-03-13 06:45:00,
2013-03-13 02:50:00,33.7,26.5,29.97,WSW,248,0.4,1.8,75,0.00,,,0.00,WUHU216HW,2013-03-13 06:50:00,
2013-03-13 02:55:00,33.7,26.5,29.97,SW,225,1.1,1.1,75,0.00,,,0.00,WUHU216HW,2013-03-13 06:55:00,
2013-03-13 03:00:00,33.7,26.8,29.97,West,270,2.0,2.0,76,0.00,,,0.00,WUHU216HW,2013-03-13 07:00:00,
2013-03-13 03:05:00,33.7,26.5,29.97,WSW,248,1.1,2.0,75,0.00,,,0.00,WUHU216HW,2013-03-13 07:05:00,
2013-03-13 03:10:00,33.7,26.8,29.96,West,270,0.2,2.5,76,0.00,,,0.00,WUHU216HW,2013-03-13 07:10:00,
2013-03-13 03:15:00,33.7,26.8,29.96,West,270,0.9,2.5,76,0.00,,,0.00,WUHU216HW,2013-03-13 07:15:00,
2013-03-13 03:20:00,33.8,27.0,29.96,West,270,0.4,3.4,76,0.00,,,0.00,WUHU216HW,2013-03-13 07:20:00,
2013-03-13 03:25:00,33.8,27.0,29.96,West,270,0.7,3.4,76,0.00,,,0.00,WUHU216HW,2013-03-13 07:25:00,
2013-03-13 03:30:00,34.0,27.2,29.96,WNW,293,2.0,2.0,76,0.00,,,0.00,WUHU216HW,2013-03-13 07:30:00,
2013-03-13 03:35:00,34.0,27.5,29.95,SW,225,2.5,2.5,77,0.00,,,0.00,WUHU216HW,2013-03-13 07:35:00,
2013-03-13 03:40:00,34.0,27.5,29.95,SW,225,2.5,2.5,77,0.00,,,0.00,WUHU216HW,2013-03-13 07:40:00,
2013-03-13 03:45:00,34.0,27.5,29.95,SSW,203,1.8,2.5,77,0.00,,,0.00,WUHU216HW,2013-03-13 07:45:00,
2013-03-13 03:50:00,33.8,27.6,29.95,SSW,203,1.1,3.1,78,0.00,,,0.00,WUHU216HW,2013-03-13 07:50:00,
2013-03-13 03:55:00,33.8,27.6,29.95,WSW,248,0.4,3.1,78,0.00,,,0.00,WUHU216HW,2013-03-13 07:55:00,
2013-03-13 04:00:00,33.5,27.3,29.95,North,0,0.7,1.3,78,0.00,,,0.00,WUHU216HW,2013-03-13 08:00:00,
2013-03-13 04:07:00,33.5,27.3,29.95,WSW,248,0.2,1.3,78,0.00,,,0.00,WUHU216HW,2013-03-13 08:07:00,
2013-03-13 04:12:00,33.1,27.3,29.95,West,270,0.4,0.7,79,0.00,,,0.00,WUHU216HW,2013-03-13 08:12:00,
2013-03-13 04:17:00,33.1,27.6,29.94,WSW,248,0.0,1.6,80,0.00,,,0.00,WUHU216HW,2013-03-13 08:17:00,
2013-03-13 04:22:00,32.9,27.5,29.94,SW,225,0.4,1.6,80,0.00,,,0.00,WUHU216HW,2013-03-13 08:22:00,
2013-03-13 04:27:00,32.8,27.3,29.94,SSW,203,0.4,1.1,80,0.00,,,0.00,WUHU216HW,2013-03-13 08:27:00,
2013-03-13 04:32:00,32.8,27.3,29.94,SSW,203,2.2,2.2,80,0.00,,,0.00,WUHU216HW,2013-03-13 08:32:00,
2013-03-13 04:37:00,32.8,27.3,29.94,West,270,0.4,2.2,80,0.00,,,0.00,WUHU216HW,2013-03-13 08:37:00,
2013-03-13 04:42:00,32.6,27.1,29.94,West,270,0.9,1.8,80,0.00,,,0.00,WUHU216HW,2013-03-13 08:42:00,
2013-03-13 04:47:00,32.4,27.3,29.94,West,270,0.2,0.9,81,0.00,,,0.00,WUHU216HW,2013-03-13 08:47:00,
2013-03-13 04:52:00,32.4,27.3,29.94,West,270,1.6,1.6,81,0.00,,,0.00,WUHU216HW,2013-03-13 08:52:00,
2013-03-13 04:57:00,32.2,27.1,29.94,West,270,0.7,1.6,81,0.00,,,0.00,WUHU216HW,2013-03-13 08:57:00,
2013-03-13 05:02:00,32.2,27.1,29.94,West,270,0.9,1.1,81,0.00,,,0.00,WUHU216HW,2013-03-13 09:02:00,
2013-03-13 05:07:00,32.0,26.9,29.94,West,270,0.4,1.1,81,0.00,,,0.00,WUHU216HW,2013-03-13 09:07:00,
2013-03-13 05:12:00,32.0,26.9,29.94,SW,225,1.1,1.1,81,0.00,,,0.00,WUHU216HW,2013-03-13 09:12:00,
2013-03-13 05:17:00,32.0,26.9,29.94,WSW,248,0.4,1.1,81,0.00,,,0.00,WUHU216HW,2013-03-13 09:17:00,
2013-03-13 05:22:00,31.9,26.7,29.94,WSW,248,0.7,1.1,81,0.00,,,0.00,WUHU216HW,2013-03-13 09:22:00,
2013-03-13 05:27:00,31.7,26.6,29.94,WSW,248,0.2,1.6,81,0.00,,,0.00,WUHU216HW,2013-03-13 09:27:00,
2013-03-13 05:32:00,31.5,26.4,29.94,SW,225,0.0,1.6,81,0.00,,,0.00,WUHU216HW,2013-03-13 09:32:00,
2013-03-13 05:37:00,31.3,26.2,29.94,West,270,0.4,0.4,81,0.00,,,0.00,WUHU216HW,2013-03-13 09:37:00,
2013-03-13 05:42:00,31.5,26.6,29.94,SW,225,0.2,0.7,82,0.00,,,0.00,WUHU216HW,2013-03-13 09:42:00,
2013-03-13 05:47:00,31.7,27.2,29.94,West,270,0.0,0.7,83,0.00,,,0.00,WUHU216HW,2013-03-13 09:47:00,
2013-03-13 05:52:00,31.7,27.2,29.94,West,270,0.4,1.3,83,0.00,,,0.00,WUHU216HW,2013-03-13 09:52:00,
2013-03-13 05:57:00,31.9,27.4,29.94,WSW,248,0.0,1.3,83,0.00,,,0.00,WUHU216HW,2013-03-13 09:57:00,
2013-03-13 06:02:00,31.9,27.4,29.94,WNW,293,0.2,0.7,83,0.00,,,0.00,WUHU216HW,2013-03-13 10:02:00,
2013-03-13 06:07:00,32.0,27.6,29.94,West,270,0.0,0.9,83,0.00,,,0.00,WUHU216HW,2013-03-13 10:07:00,
2013-03-13 06:12:00,32.0,27.6,29.94,SW,225,0.4,0.9,83,0.00,,,0.00,WUHU216HW,2013-03-13 10:12:00,
2013-03-13 06:17:00,32.0,27.6,29.94,SSW,203,1.1,1.1,83,0.00,,,0.00,WUHU216HW,2013-03-13 10:17:00,
2013-03-13 06:22:00,32.0,27.6,29.94,SW,225,0.0,1.1,83,0.00,,,0.00,WUHU216HW,2013-03-13 10:22:00,
2013-03-13 06:27:00,32.2,27.6,29.94,WSW,248,1.1,1.1,83,0.00,,,0.00,WUHU216HW,2013-03-13 10:27:00,
2013-03-13 06:32:00,32.2,27.6,29.94,WSW,248,0.4,1.6,83,0.00,,,0.00,WUHU216HW,2013-03-13 10:32:00,
2013-03-13 06:37:00,32.2,27.6,29.94,WSW,248,1.1,1.6,83,0.00,,,0.00,WUHU216HW,2013-03-13 10:37:00,
2013-03-13 06:42:00,32.2,27.6,29.94,WSW,248,0.7,1.1,83,0.00,,,0.00,WUHU216HW,2013-03-13 10:42:00,
2013-03-13 06:47:00,32.2,27.6,29.94,WSW,248,1.1,1.1,83,0.00,,,0.00,WUHU216HW,2013-03-13 10:47:00,
2013-03-13 06:52:00,32.2,27.6,29.94,WSW,248,1.6,1.8,83,0.00,,,0.00,WUHU216HW,2013-03-13 10:52:00,
2013-03-13 06:57:00,32.2,27.6,29.94,WSW,248,0.7,1.8,83,0.00,,,0.00,WUHU216HW,2013-03-13 10:57:00,
2013-03-13 07:02:00,32.2,28.0,29.94,WSW,248,1.1,1.8,84,0.00,,,0.00,WUHU216HW,2013-03-13 11:02:00,
2013-03-13 07:07:00,32.2,28.0,29.94,WSW,248,0.4,1.8,84,0.00,,,0.00,WUHU216HW,2013-03-13 11:07:00,
2013-03-13 07:12:00,32.2,28.0,29.94,WSW,248,0.0,1.8,84,0.00,,,0.00,WUHU216HW,2013-03-13 11:12:00,
2013-03-13 07:17:00,32.2,28.0,29.94,WSW,248,0.4,1.1,84,0.00,,,0.00,WUHU216HW,2013-03-13 11:17:00,
2013-03-13 07:22:00,32.2,28.0,29.94,WSW,248,0.2,1.3,84,0.00,,,0.00,WUHU216HW,2013-03-13 11:22:00,
2013-03-13 07:27:00,32.4,28.1,29.94,WSW,248,0.0,1.3,84,0.00,,,0.00,WUHU216HW,2013-03-13 11:27:00,
2013-03-13 07:32:00,32.4,28.5,29.94,WSW,248,0.4,0.9,85,0.00,,,0.00,WUHU216HW,2013-03-13 11:32:00,
2013-03-13 07:37:00,32.4,28.5,29.94,WSW,248,0.2,1.1,85,0.00,,,0.00,WUHU216HW,2013-03-13 11:37:00,
2013-03-13 07:42:00,32.4,28.1,29.94,WSW,248,0.4,1.1,84,0.00,,,0.00,WUHU216HW,2013-03-13 11:42:00,
2013-03-13 07:47:00,32.4,28.5,29.94,WSW,248,0.7,1.8,85,0.00,,,0.00,WUHU216HW,2013-03-13 11:47:00,
2013-03-13 07:52:00,32.4,28.5,29.94,WSW,248,0.0,1.8,85,0.00,,,0.00,WUHU216HW,2013-03-13 11:52:00,
2013-03-13 07:57:00,32.4,28.7,29.94,WSW,248,1.3,2.5,86,0.00,,,0.00,WUHU216HW,2013-03-13 11:57:00,
2013-03-13 08:02:00,32.4,28.7,29.95,WSW,248,0.0,2.5,86,0.00,,,0.00,WUHU216HW,2013-03-13 12:02:00,
2013-03-13 08:07:00,32.6,28.9,29.95,WSW,248,0.4,0.4,86,0.00,,,0.00,WUHU216HW,2013-03-13 12:07:00,
2013-03-13 08:12:00,32.6,28.9,29.95,WSW,248,0.9,2.0,86,0.00,,,0.00,WUHU216HW,2013-03-13 12:12:00,
2013-03-13 08:17:00,32.6,28.9,29.95,WSW,248,1.3,2.0,86,0.00,,,0.00,WUHU216HW,2013-03-13 12:17:00,
2013-03-13 08:22:00,32.4,28.5,29.95,WSW,248,0.4,5.4,85,0.00,,,0.00,WUHU216HW,2013-03-13 12:22:00,
2013-03-13 08:27:00,32.6,28.5,29.95,WSW,248,1.1,5.4,85,0.00,,,0.00,WUHU216HW,2013-03-13 12:27:00,
2013-03-13 08:32:00,32.6,28.5,29.95,WSW,248,0.9,2.5,85,0.00,,,0.00,WUHU216HW,2013-03-13 12:32:00,
2013-03-13 08:37:00,32.6,28.3,29.95,WSW,248,2.5,2.5,84,0.00,,,0.00,WUHU216HW,2013-03-13 12:37:00,
2013-03-13 08:42:00,32.6,28.0,29.96,WSW,248,1.3,2.5,83,0.00,,,0.00,WUHU216HW,2013-03-13 12:42:00,
2013-03-13 08:47:00,32.8,28.2,29.96,WSW,248,1.1,2.5,83,0.00,,,0.00,WUHU216HW,2013-03-13 12:47:00,
2013-03-13 08:52:00,32.9,28.4,29.96,WSW,248,1.3,1.3,83,0.00,,,0.00,WUHU216HW,2013-03-13 12:52:00,
2013-03-13 08:57:00,32.8,27.9,29.96,WSW,248,1.8,2.5,82,0.00,,,0.00,WUHU216HW,2013-03-13 12:57:00,
2013-03-13 09:02:00,32.9,27.7,29.96,WSW,248,0.0,2.5,81,0.00,,,0.00,WUHU216HW,2013-03-13 13:02:00,
2013-03-13 09:07:00,33.1,27.9,29.96,WSW,248,1.8,1.8,81,0.00,,,0.00,WUHU216HW,2013-03-13 13:07:00,
2013-03-13 09:12:00,33.1,27.9,29.96,WSW,248,1.1,1.8,81,0.00,,,0.00,WUHU216HW,2013-03-13 13:12:00,
2013-03-13 09:17:00,33.3,27.5,29.96,WSW,248,1.1,2.2,79,0.00,,,0.00,WUHU216HW,2013-03-13 13:17:00,
2013-03-13 09:22:00,33.1,26.6,29.96,WSW,248,1.1,4.0,77,0.00,,,0.00,WUHU216HW,2013-03-13 13:22:00,
2013-03-13 09:27:00,33.3,26.8,29.96,WSW,248,1.6,4.0,77,0.00,,,0.00,WUHU216HW,2013-03-13 13:27:00,
2013-03-13 09:32:00,33.5,27.3,29.96,WSW,248,0.7,2.5,78,0.00,,,0.00,WUHU216HW,2013-03-13 13:32:00,
2013-03-13 09:38:00,33.7,27.5,29.96,SW,225,0.2,2.5,78,0.00,,,0.00,WUHU216HW,2013-03-13 13:38:00,
2013-03-13 09:43:00,33.8,27.3,29.96,WSW,248,0.4,1.8,77,0.00,,,0.00,WUHU216HW,2013-03-13 13:43:00,
2013-03-13 09:48:00,33.8,27.0,29.96,WSW,248,1.1,4.5,76,0.00,,,0.00,WUHU216HW,2013-03-13 13:48:00,
2013-03-13 09:53:00,33.8,27.0,29.96,WSW,248,2.2,4.5,76,0.00,,,0.00,WUHU216HW,2013-03-13 13:53:00,
2013-03-13 09:58:00,33.7,26.5,29.97,West,270,1.3,2.2,75,0.00,,,0.00,WUHU216HW,2013-03-13 13:58:00,
2013-03-13 10:03:00,33.7,26.2,29.97,SSW,203,2.7,2.7,74,0.00,,,0.00,WUHU216HW,2013-03-13 14:03:00,
2013-03-13 10:08:00,33.5,26.0,29.97,West,270,1.1,2.7,74,0.00,,,0.00,WUHU216HW,2013-03-13 14:08:00,
2013-03-13 10:13:00,33.7,26.5,29.97,WSW,248,1.1,2.9,75,0.00,,,0.00,WUHU216HW,2013-03-13 14:13:00,
2013-03-13 10:18:00,33.7,26.8,29.97,West,270,1.1,2.9,76,0.00,,,0.00,WUHU216HW,2013-03-13 14:18:00,
2013-03-13 10:23:00,33.7,26.8,29.97,SW,225,1.8,2.7,76,0.00,,,0.00,WUHU216HW,2013-03-13 14:23:00,
2013-03-13 10:28:00,33.8,27.0,29.97,WNW,293,0.9,2.7,76,0.00,,,0.00,WUHU216HW,2013-03-13 14:28:00,
2013-03-13 10:33:00,33.8,27.3,29.97,West,270,0.7,1.3,77,0.00,,,0.00,WUHU216HW,2013-03-13 14:33:00,
2013-03-13 10:38:00,34.0,27.2,29.97,WNW,293,1.1,1.3,76,0.00,,,0.00,WUHU216HW,2013-03-13 14:38:00,
2013-03-13 10:43:00,34.0,27.2,29.97,West,270,2.0,4.0,76,0.00,,,0.00,WUHU216HW,2013-03-13 14:43:00,
2013-03-13 10:48:00,33.8,27.3,29.97,SW,225,0.7,4.0,77,0.00,,,0.00,WUHU216HW,2013-03-13 14:48:00,
2013-03-13 10:53:00,33.8,27.6,29.97,West,270,0.4,2.2,78,0.00,,,0.00,WUHU216HW,2013-03-13 14:53:00,
2013-03-13 10:58:00,33.3,27.8,29.97,West,270,0.4,2.5,80,0.00,,,0.00,WUHU216HW,2013-03-13 14:58:00,
2013-03-13 11:03:00,32.8,27.3,29.97,WSW,248,0.0,2.5,80,0.00,,,0.00,WUHU216HW,2013-03-13 15:03:00,
2013-03-13 11:08:00,32.6,27.5,29.97,West,270,0.9,1.1,81,0.00,,,0.00,WUHU216HW,2013-03-13 15:08:00,
2013-03-13 11:13:00,32.6,27.5,29.97,West,270,0.0,0.9,81,0.00,,,0.00,WUHU216HW,2013-03-13 15:13:00,
2013-03-13 11:18:00,32.8,27.9,29.97,West,270,0.2,0.4,82,0.00,,,0.00,WUHU216HW,2013-03-13 15:18:00,
2013-03-13 11:23:00,33.1,28.4,29.97,SW,225,1.1,1.1,83,0.00,,,0.00,WUHU216HW,2013-03-13 15:23:00,
2013-03-13 11:28:00,33.5,28.5,29.97,West,270,0.2,2.2,82,0.01,,,0.01,WUHU216HW,2013-03-13 15:28:00,
2013-03-13 11:33:00,33.7,28.7,29.97,West,270,4.0,4.0,82,0.01,,,0.01,WUHU216HW,2013-03-13 15:33:00,
2013-03-13 11:38:00,33.5,28.3,29.97,West,270,0.7,4.0,81,0.01,,,0.01,WUHU216HW,2013-03-13 15:38:00,
2013-03-13 11:43:00,33.1,28.2,29.97,SW,225,1.1,2.5,82,0.01,,,0.01,WUHU216HW,2013-03-13 15:43:00,
2013-03-13 11:48:00,33.1,28.2,29.97,West,270,0.9,1.8,82,0.01,,,0.01,WUHU216HW,2013-03-13 15:48:00,
2013-03-13 11:53:00,33.1,28.4,29.98,WSW,248,0.4,2.7,83,0.01,,,0.01,WUHU216HW,2013-03-13 15:53:00,
2013-03-13 11:58:00,32.0,27.6,29.98,West,270,3.4,4.5,83,0.01,,,0.01,WUHU216HW,2013-03-13 15:58:00,
2013-03-13 12:03:00,31.3,27.4,29.98,WNW,293,2.0,4.7,85,0.01,,,0.01,WUHU216HW,2013-03-13 16:03:00,
2013-03-13 12:08:00,30.8,26.8,29.98,WNW,293,4.5,6.3,85,0.01,,,0.01,WUHU216HW,2013-03-13 16:08:00,
2013-03-13 12:13:00,30.6,26.6,29.98,WNW,293,2.9,6.3,85,0.01,,,0.01,WUHU216HW,2013-03-13 16:13:00,
2013-03-13 12:18:00,31.0,26.7,29.98,WNW,293,1.3,3.4,84,0.01,,,0.01,WUHU216HW,2013-03-13 16:18:00,
2013-03-13 12:23:00,31.5,27.0,29.98,West,270,1.1,2.2,83,0.01,,,0.01,WUHU216HW,2013-03-13 16:23:00,
2013-03-13 12:28:00,32.0,27.2,29.98,West,270,0.7,4.0,82,0.00,,,0.01,WUHU216HW,2013-03-13 16:28:00,
2013-03-13 12:33:00,33.5,28.3,29.98,SW,225,1.8,4.0,81,0.00,,,0.01,WUHU216HW,2013-03-13 16:33:00,
2013-03-13 12:38:00,34.2,28.6,29.98,West,270,2.9,2.9,80,0.01,,,0.02,WUHU216HW,2013-03-13 16:38:00,
2013-03-13 12:43:00,35.3,29.7,29.98,WSW,248,1.6,2.9,80,0.01,,,0.02,WUHU216HW,2013-03-13 16:43:00,
2013-03-13 12:48:00,35.3,27.7,29.98,West,270,1.8,2.9,74,0.01,,,0.02,WUHU216HW,2013-03-13 16:48:00,
2013-03-13 12:53:00,35.1,27.5,29.98,West,270,1.8,2.9,74,0.01,,,0.02,WUHU216HW,2013-03-13 16:53:00,
2013-03-13 12:58:00,34.9,27.1,29.98,WSW,248,2.0,3.1,73,0.02,,,0.03,WUHU216HW,2013-03-13 16:58:00,
2013-03-13 13:03:00,35.8,28.0,29.97,West,270,3.1,4.0,73,0.02,,,0.03,WUHU216HW,2013-03-13 17:03:00,
2013-03-13 13:08:00,36.9,29.1,29.97,WSW,248,2.9,4.0,73,0.02,,,0.03,WUHU216HW,2013-03-13 17:08:00,
2013-03-13 13:13:00,38.0,29.8,29.97,SW,225,1.6,2.9,72,0.02,,,0.03,WUHU216HW,2013-03-13 17:13:00,
2013-03-13 13:18:00,38.3,28.3,29.97,SW,225,1.3,2.7,67,0.02,,,0.03,WUHU216HW,2013-03-13 17:18:00,
2013-03-13 13:23:00,37.8,27.5,29.97,SW,225,2.0,2.7,66,0.02,,,0.03,WUHU216HW,2013-03-13 17:23:00,
2013-03-13 13:28:00,37.1,24.5,29.97,West,270,4.9,4.9,60,0.02,,,0.03,WUHU216HW,2013-03-13 17:28:00,
2013-03-13 13:33:00,36.5,24.8,29.97,SW,225,1.1,5.4,62,0.01,,,0.03,WUHU216HW,2013-03-13 17:33:00,
2013-03-13 13:38:00,36.4,24.6,29.97,West,270,2.7,5.4,62,0.01,,,0.03,WUHU216HW,2013-03-13 17:38:00,
2013-03-13 13:43:00,36.2,26.3,29.98,WSW,248,1.1,5.4,67,0.01,,,0.03,WUHU216HW,2013-03-13 17:43:00,
2013-03-13 13:48:00,34.9,25.7,29.98,NW,315,4.3,6.0,69,0.01,,,0.03,WUHU216HW,2013-03-13 17:48:00,
2013-03-13 13:53:00,34.2,25.4,29.98,NW,315,3.8,6.0,70,0.00,,,0.03,WUHU216HW,2013-03-13 17:53:00,
2013-03-13 13:58:00,33.8,25.0,29.99,WNW,293,1.1,4.9,70,0.00,,,0.03,WUHU216HW,2013-03-13 17:58:00,
2013-03-13 14:03:00,33.8,24.3,29.99,West,270,3.1,3.4,68,0.00,,,0.03,WUHU216HW,2013-03-13 18:03:00,
2013-03-13 14:08:00,33.8,23.9,29.98,SW,225,1.6,6.7,67,0.00,,,0.03,WUHU216HW,2013-03-13 18:08:00,
2013-03-13 14:13:00,34.0,23.4,29.98,SE,135,1.1,6.7,65,0.00,,,0.03,WUHU216HW,2013-03-13 18:13:00,
2013-03-13 14:18:00,34.2,23.6,29.98,South,180,1.8,6.3,65,0.00,,,0.03,WUHU216HW,2013-03-13 18:18:00,
2013-03-13 14:23:00,34.6,24.3,29.99,NNE,23,2.2,4.7,66,0.00,,,0.03,WUHU216HW,2013-03-13 18:23:00,
2013-03-13 14:28:00,34.9,25.0,29.99,North,0,0.4,4.7,67,0.00,,,0.03,WUHU216HW,2013-03-13 18:28:00,
2013-03-13 14:33:00,33.8,25.0,29.99,SSE,158,1.8,6.3,70,0.00,,,0.03,WUHU216HW,2013-03-13 18:33:00,
2013-03-13 14:38:00,32.8,24.0,29.99,NW,315,6.9,6.9,70,0.00,,,0.03,WUHU216HW,2013-03-13 18:38:00,
2013-03-13 14:43:00,32.6,23.9,29.99,NW,315,5.8,6.9,70,0.00,,,0.03,WUHU216HW,2013-03-13 18:43:00,
2013-03-13 14:48:00,33.5,25.4,29.99,West,270,4.0,7.6,72,0.00,,,0.03,WUHU216HW,2013-03-13 18:48:00,
2013-03-13 14:53:00,32.9,25.2,30.00,WSW,248,1.6,7.6,73,0.00,,,0.03,WUHU216HW,2013-03-13 18:53:00,
2013-03-13 14:58:00,31.9,25.2,30.00,West,270,2.0,7.4,76,0.00,,,0.03,WUHU216HW,2013-03-13 18:58:00,
2013-03-13 15:03:00,31.5,24.9,30.00,NNW,338,0.7,6.7,76,0.00,,,0.03,WUHU216HW,2013-03-13 19:03:00,
2013-03-13 15:08:00,32.2,24.8,30.00,West,270,1.1,3.1,74,0.00,,,0.03,WUHU216HW,2013-03-13 19:08:00,
2013-03-13 15:13:00,32.9,24.8,29.99,NW,315,0.4,3.4,72,0.00,,,0.03,WUHU216HW,2013-03-13 19:13:00,
2013-03-13 15:18:00,33.3,23.9,29.99,West,270,1.1,4.5,68,0.00,,,0.03,WUHU216HW,2013-03-13 19:18:00,
2013-03-13 15:23:00,34.0,22.7,30.00,WSW,248,1.8,4.7,63,0.00,,,0.03,WUHU216HW,2013-03-13 19:23:00,
2013-03-13 15:28:00,35.3,24.7,29.99,SW,225,0.7,4.7,65,0.00,,,0.03,WUHU216HW,2013-03-13 19:28:00,
2013-03-13 15:33:00,36.0,24.0,29.99,West,270,0.9,6.5,61,0.00,,,0.03,WUHU216HW,2013-03-13 19:33:00,
2013-03-13 15:38:00,35.6,23.6,29.99,WSW,248,2.5,6.5,61,0.00,,,0.03,WUHU216HW,2013-03-13 19:38:00,
2013-03-13 15:43:00,34.6,24.7,30.00,WNW,293,1.6,8.3,67,0.00,,,0.03,WUHU216HW,2013-03-13 19:43:00,
2013-03-13 15:48:00,32.8,24.7,30.00,West,270,3.6,8.3,72,0.00,,,0.03,WUHU216HW,2013-03-13 19:48:00,
2013-03-13 15:53:00,32.0,24.0,30.01,WNW,293,1.1,5.6,72,0.00,,,0.03,WUHU216HW,2013-03-13 19:53:00,
2013-03-13 15:58:00,31.7,24.3,30.01,West,270,1.6,5.6,74,0.00,,,0.03,WUHU216HW,2013-03-13 19:58:00,
2013-03-13 16:03:00,31.7,23.7,30.01,NW,315,1.1,5.6,72,0.00,,,0.03,WUHU216HW,2013-03-13 20:03:00,
2013-03-13 16:08:00,31.9,23.9,30.01,WNW,293,4.7,4.7,72,0.00,,,0.03,WUHU216HW,2013-03-13 20:08:00,
2013-03-13 16:13:00,32.0,23.8,30.01,WSW,248,1.1,4.7,71,0.00,,,0.03,WUHU216HW,2013-03-13 20:13:00,
2013-03-13 16:18:00,32.4,23.4,30.01,SW,225,3.1,4.0,69,0.00,,,0.03,WUHU216HW,2013-03-13 20:18:00,
2013-03-13 16:23:00,32.4,23.4,30.02,North,0,9.6,9.6,69,0.00,,,0.03,WUHU216HW,2013-03-13 20:23:00,
2013-03-13 16:28:00,31.7,24.0,30.02,West,270,3.1,9.6,73,0.00,,,0.03,WUHU216HW,2013-03-13 20:28:00,
2013-03-13 16:33:00,30.6,25.2,30.02,WSW,248,0.2,4.7,80,0.00,,,0.03,WUHU216HW,2013-03-13 20:33:00,
2013-03-13 16:38:00,30.6,25.5,30.02,West,270,2.9,3.8,81,0.00,,,0.03,WUHU216HW,2013-03-13 20:38:00,
2013-03-13 16:43:00,30.8,24.8,30.02,West,270,2.9,5.4,78,0.00,,,0.03,WUHU216HW,2013-03-13 20:43:00,
2013-03-13 16:48:00,31.3,24.7,30.02,WSW,248,1.6,5.4,76,0.00,,,0.03,WUHU216HW,2013-03-13 20:48:00,
2013-03-13 16:53:00,32.0,24.7,30.03,WSW,248,2.7,3.6,74,0.00,,,0.03,WUHU216HW,2013-03-13 20:53:00,
2013-03-13 16:58:00,32.8,24.7,30.03,WNW,293,1.8,3.8,72,0.00,,,0.03,WUHU216HW,2013-03-13 20:58:00,
2013-03-13 17:03:00,32.6,23.9,30.03,NNW,338,5.8,5.8,70,0.00,,,0.03,WUHU216HW,2013-03-13 21:03:00,
2013-03-13 17:08:00,32.4,23.4,30.03,NW,315,0.4,5.8,69,0.00,,,0.03,WUHU216HW,2013-03-13 21:08:00,
2013-03-13 17:13:00,32.8,23.3,30.03,NW,315,3.4,6.3,68,0.00,,,0.03,WUHU216HW,2013-03-13 21:13:00,
2013-03-13 17:18:00,32.8,23.3,30.03,NW,315,0.9,6.3,68,0.00,,,0.03,WUHU216HW,2013-03-13 21:18:00,
2013-03-13 17:23:00,32.6,22.8,30.03,NW,315,2.0,4.0,67,0.00,,,0.03,WUHU216HW,2013-03-13 21:23:00,
2013-03-13 17:28:00,32.0,22.0,30.04,WNW,293,4.0,6.3,66,0.00,,,0.03,WUHU216HW,2013-03-13 21:28:00,
2013-03-13 17:33:00,31.7,21.6,30.04,West,270,0.4,8.5,66,0.00,,,0.03,WUHU216HW,2013-03-13 21:33:00,
2013-03-13 17:38:00,31.3,22.0,30.04,NNW,338,8.3,8.5,68,0.00,,,0.03,WUHU216HW,2013-03-13 21:38:00,
2013-03-13 17:43:00,30.6,22.6,30.05,WNW,293,1.1,8.3,72,0.00,,,0.03,WUHU216HW,2013-03-13 21:43:00,
2013-03-13 17:48:00,30.1,23.0,30.05,WSW,248,2.0,4.3,75,0.00,,,0.03,WUHU216HW,2013-03-13 21:48:00,
2013-03-13 17:53:00,29.9,22.9,30.05,South,180,2.7,4.3,75,0.00,,,0.03,WUHU216HW,2013-03-13 21:53:00,
2013-03-13 17:58:00,29.9,23.2,30.06,WNW,293,2.5,6.7,76,0.00,,,0.03,WUHU216HW,2013-03-13 21:58:00,
2013-03-13 18:03:00,29.9,22.9,30.06,West,270,3.4,6.7,75,0.00,,,0.03,WUHU216HW,2013-03-13 22:03:00,
2013-03-13 18:08:00,29.9,23.2,30.06,West,270,4.0,4.0,76,0.00,,,0.03,WUHU216HW,2013-03-13 22:08:00,
2013-03-13 18:13:00,29.7,23.3,30.06,West,270,1.1,4.0,77,0.00,,,0.03,WUHU216HW,2013-03-13 22:13:00,
2013-03-13 18:18:00,29.7,23.9,30.06,NW,315,3.6,4.3,79,0.00,,,0.03,WUHU216HW,2013-03-13 22:18:00,
2013-03-13 18:23:00,29.7,22.7,30.07,NNW,338,3.8,7.6,75,0.00,,,0.03,WUHU216HW,2013-03-13 22:23:00,
2013-03-13 18:28:00,29.9,22.0,30.07,West,270,0.7,7.6,72,0.00,,,0.03,WUHU216HW,2013-03-13 22:28:00,
2013-03-13 18:33:00,30.1,21.4,30.07,NNW,338,0.4,4.9,70,0.00,,,0.03,WUHU216HW,2013-03-13 22:33:00,
2013-03-13 18:38:00,30.2,21.2,30.07,WSW,248,0.9,4.7,69,0.00,,,0.03,WUHU216HW,2013-03-13 22:38:00,
2013-03-13 18:43:00,30.1,20.0,30.07,NW,315,2.5,3.1,66,0.00,,,0.03,WUHU216HW,2013-03-13 22:43:00,
2013-03-13 18:48:00,30.1,20.0,30.07,WNW,293,3.8,3.8,66,0.00,,,0.03,WUHU216HW,2013-03-13 22:48:00,
2013-03-13 18:53:00,29.9,19.4,30.07,WSW,248,1.8,6.9,65,0.00,,,0.03,WUHU216HW,2013-03-13 22:53:00,
2013-03-13 18:58:00,29.9,18.7,30.07,WSW,248,3.4,6.9,63,0.00,,,0.03,WUHU216HW,2013-03-13 22:58:00,
2013-03-13 19:03:00,29.9,18.4,30.07,West,270,3.1,6.3,62,0.00,,,0.03,WUHU216HW,2013-03-13 23:03:00,
2013-03-13 19:08:00,29.9,18.0,30.08,WSW,248,3.6,5.4,61,0.00,,,0.03,WUHU216HW,2013-03-13 23:08:00,
2013-03-13 19:13:00,29.9,18.0,30.08,WSW,248,3.6,3.6,61,0.00,,,0.03,WUHU216HW,2013-03-13 23:13:00,
2013-03-13 19:18:00,29.9,18.0,30.08,NNW,338,2.9,3.1,61,0.00,,,0.03,WUHU216HW,2013-03-13 23:18:00,
2013-03-13 19:23:00,29.9,18.0,30.08,SW,225,6.3,6.3,61,0.00,,,0.03,WUHU216HW,2013-03-13 23:23:00,
2013-03-13 19:25:00,29.7,17.9,30.08,WSW,248,1.1,1.1,61,0.00,,,0.03,WUHU216HW,2013-03-13 23:25:00,
2013-03-13 19:28:00,29.7,17.9,30.08,WSW,248,1.1,6.3,61,0.00,,,0.03,WUHU216HW,2013-03-13 23:28:00,
2013-03-13 19:33:00,29.7,17.9,30.08,WSW,248,1.1,1.6,61,0.00,,,0.03,WUHU216HW,2013-03-13 23:33:00,
2013-03-13 19:41:00,29.3,18.6,30.09,NW,315,5.4,5.4,64,0.00,,,0.03,WUHU216HW,2013-03-13 23:41:00,
2013-03-13 19:43:00,29.3,18.6,30.09,West,270,3.6,3.6,64,0.00,,,0.03,WUHU216HW,2013-03-13 23:43:00,
2013-03-13 19:46:00,29.3,18.6,30.09,West,270,3.6,5.4,64,0.00,,,0.03,WUHU216HW,2013-03-13 23:46:00,
2013-03-13 19:51:00,29.3,18.6,30.09,West,270,3.6,3.6,64,0.00,,,0.03,WUHU216HW,2013-03-13 23:51:00,
2013-03-13 19:56:00,29.2,19.2,30.09,NW,315,5.1,5.1,66,0.00,,,0.03,WUHU216HW,2013-03-13 23:56:00,
2013-03-13 20:01:00,29.0,19.4,30.10,WNW,293,5.6,5.6,67,0.00,,,0.03,WUHU216HW,2013-03-14 00:01:00,
2013-03-13 20:06:00,28.8,19.6,30.10,NW,315,2.5,5.6,68,0.00,,,0.03,WUHU216HW,2013-03-14 00:06:00,
2013-03-13 20:12:00,28.8,20.0,30.10,WSW,248,4.7,4.7,69,0.00,,,0.03,WUHU216HW,2013-03-14 00:12:00,
2013-03-13 20:17:00,28.6,19.8,30.10,West,270,2.7,5.8,69,0.00,,,0.03,WUHU216HW,2013-03-14 00:17:00,
2013-03-13 20:22:00,28.8,20.0,30.10,West,270,0.4,5.8,69,0.00,,,0.03,WUHU216HW,2013-03-14 00:22:00,
2013-03-13 20:27:00,29.0,20.4,30.11,NW,315,2.5,2.5,70,0.00,,,0.03,WUHU216HW,2013-03-14 00:27:00,
2013-03-13 20:32:00,28.8,20.4,30.11,NNW,338,2.2,2.5,70,0.00,,,0.03,WUHU216HW,2013-03-14 00:32:00,
2013-03-13 20:37:00,28.8,20.6,30.11,NNW,338,2.2,3.6,71,0.00,,,0.03,WUHU216HW,2013-03-14 00:37:00,
2013-03-13 20:42:00,28.8,20.6,30.11,West,270,0.2,3.6,71,0.00,,,0.03,WUHU216HW,2013-03-14 00:42:00,
2013-03-13 20:47:00,28.8,20.6,30.11,WSW,248,0.4,8.3,71,0.00,,,0.03,WUHU216HW,2013-03-14 00:47:00,
2013-03-13 20:52:00,28.8,21.3,30.11,West,270,0.4,8.3,73,0.00,,,0.03,WUHU216HW,2013-03-14 00:52:00,
2013-03-13 20:57:00,28.8,21.5,30.11,WSW,248,2.2,4.5,74,0.00,,,0.03,WUHU216HW,2013-03-14 00:57:00,
2013-03-13 21:02:00,28.6,21.3,30.11,NW,315,1.3,4.3,74,0.00,,,0.03,WUHU216HW,2013-03-14 01:02:00,
2013-03-13 21:07:00,28.4,21.5,30.11,WSW,248,0.9,4.3,75,0.00,,,0.03,WUHU216HW,2013-03-14 01:07:00,
2013-03-13 21:12:00,28.4,22.2,30.12,WSW,248,1.1,3.8,77,0.00,,,0.03,WUHU216HW,2013-03-14 01:12:00,
2013-03-13 21:17:00,28.1,22.4,30.12,WNW,293,4.0,5.4,79,0.00,,,0.03,WUHU216HW,2013-03-14 01:17:00,
2013-03-13 21:22:00,27.7,22.9,30.12,WSW,248,1.6,5.4,82,0.00,,,0.03,WUHU216HW,2013-03-14 01:22:00,
2013-03-13 21:27:00,27.5,23.1,30.12,WSW,248,0.2,4.5,83,0.00,,,0.03,WUHU216HW,2013-03-14 01:27:00,
2013-03-13 21:32:00,27.5,22.7,30.12,NW,315,4.9,4.9,82,0.00,,,0.03,WUHU216HW,2013-03-14 01:32:00,
2013-03-13 21:37:00,27.4,22.0,30.12,West,270,1.3,6.5,80,0.00,,,0.03,WUHU216HW,2013-03-14 01:37:00,
2013-03-13 21:42:00,27.4,21.7,30.12,WSW,248,1.1,6.5,79,0.00,,,0.03,WUHU216HW,2013-03-14 01:42:00,
2013-03-13 21:47:00,27.4,21.3,30.12,WSW,248,1.8,5.1,78,0.00,,,0.03,WUHU216HW,2013-03-14 01:47:00,
2013-03-13 21:52:00,27.5,21.3,30.12,NW,315,3.6,5.4,77,0.00,,,0.03,WUHU216HW,2013-03-14 01:52:00,
2013-03-13 21:57:00,27.5,21.3,30.12,NW,315,1.1,5.4,77,0.00,,,0.03,WUHU216HW,2013-03-14 01:57:00,
2013-03-13 22:02:00,27.5,21.3,30.12,WSW,248,1.1,4.7,77,0.00,,,0.03,WUHU216HW,2013-03-14 02:02:00,
2013-03-13 22:07:00,27.5,20.9,30.12,WNW,293,0.9,5.1,76,0.00,,,0.03,WUHU216HW,2013-03-14 02:07:00,
2013-03-13 22:12:00,27.4,20.7,30.12,NW,315,1.6,5.1,76,0.00,,,0.03,WUHU216HW,2013-03-14 02:12:00,
2013-03-13 22:17:00,27.5,20.9,30.12,WSW,248,3.4,3.4,76,0.00,,,0.03,WUHU216HW,2013-03-14 02:17:00,
2013-03-13 22:22:00,27.5,20.6,30.12,NW,315,3.4,3.4,75,0.00,,,0.03,WUHU216HW,2013-03-14 02:22:00,
2013-03-13 22:27:00,27.7,20.8,30.12,North,0,0.4,3.4,75,0.00,,,0.03,WUHU216HW,2013-03-14 02:27:00,
2013-03-13 22:32:00,27.7,20.8,30.12,SSW,203,2.5,5.6,75,0.00,,,0.03,WUHU216HW,2013-03-14 02:32:00,
2013-03-13 22:37:00,27.5,20.9,30.13,NNW,338,1.1,5.6,76,0.00,,,0.03,WUHU216HW,2013-03-14 02:37:00,
2013-03-13 22:42:00,27.4,21.1,30.13,WSW,248,2.0,4.0,77,0.00,,,0.03,WUHU216HW,2013-03-14 02:42:00,
2013-03-13 22:47:00,27.4,21.1,30.13,NNW,338,1.8,4.0,77,0.00,,,0.03,WUHU216HW,2013-03-14 02:47:00,
2013-03-13 22:52:00,27.2,20.9,30.13,West,270,1.3,2.0,77,0.00,,,0.03,WUHU216HW,2013-03-14 02:52:00,
2013-03-13 22:57:00,27.2,20.9,30.13,WNW,293,4.3,5.1,77,0.00,,,0.03,WUHU216HW,2013-03-14 02:57:00,
2013-03-13 23:02:00,27.2,20.9,30.14,West,270,0.9,5.1,77,0.00,,,0.03,WUHU216HW,2013-03-14 03:02:00,
2013-03-13 23:07:00,27.2,20.9,30.13,NW,315,4.7,5.1,77,0.00,,,0.03,WUHU216HW,2013-03-14 03:07:00,
2013-03-13 23:13:00,27.2,20.9,30.14,West,270,0.7,4.7,77,0.00,,,0.03,WUHU216HW,2013-03-14 03:13:00,
2013-03-13 23:21:00,27.4,21.1,30.14,WSW,248,1.1,1.3,77,0.00,,,0.03,WUHU216HW,2013-03-14 03:21:00,
2013-03-13 23:26:00,27.4,20.7,30.14,WNW,293,3.8,7.2,76,0.00,,,0.03,WUHU216HW,2013-03-14 03:26:00,
2013-03-13 23:31:00,27.4,21.1,30.14,West,270,1.1,7.2,77,0.00,,,0.03,WUHU216HW,2013-03-14 03:31:00,
2013-03-13 23:36:00,27.4,21.1,30.14,NNW,338,0.9,8.3,77,0.00,,,0.03,WUHU216HW,2013-03-14 03:36:00,
2013-03-13 23:41:00,27.2,20.9,30.14,West,270,0.4,8.3,77,0.00,,,0.03,WUHU216HW,2013-03-14 03:41:00,
2013-03-13 23:47:00,27.2,20.9,30.14,West,270,4.3,7.8,77,0.00,,,0.03,WUHU216HW,2013-03-14 03:47:00,
2013-03-13 23:52:00,27.2,20.9,30.14,West,270,1.8,6.3,77,0.00,,,0.03,WUHU216HW,2013-03-14 03:52:00,
2013-03-13 23:57:00,27.2,20.5,30.14,WNW,293,2.5,3.4,76,0.00,,,0.03,WUHU216HW,2013-03-14 03:57:00,